createdAt,value
2022-11-30T00:01:24.920Z,94.81
2022-11-30T00:03:57.298Z,94.91
2022-11-30T00:06:26.034Z,94.31
2022-11-30T00:08:57.986Z,94.12
2022-11-30T00:11:28.595Z,94.13
2022-11-30T00:13:56.428Z,93.82
2022-11-30T00:16:24.270Z,94.00
2022-11-30T00:18:51.964Z,94.22
2022-11-30T00:21:19.720Z,94.06
2022-11-30T00:23:48.190Z,93.82
2022-11-30T00:26:18.979Z,93.38
2022-11-30T00:28:47.706Z,93.35
2022-11-30T00:31:18.316Z,93.44
2022-11-30T00:33:45.887Z,92.57
2022-11-30T00:36:19.715Z,92.72
2022-11-30T00:38:48.468Z,93.04
2022-11-30T00:41:17.093Z,93.54
2022-11-30T00:43:45.255Z,93.75
2022-11-30T00:46:13.237Z,93.23
2022-11-30T00:48:41.771Z,93.23
2022-11-30T00:51:11.429Z,93.12
2022-11-30T00:53:40.035Z,93.88
2022-11-30T00:56:08.961Z,93.91
2022-11-30T00:58:36.156Z,94.63
2022-11-30T01:01:03.724Z,94.49
2022-11-30T01:03:31.064Z,93.51
2022-11-30T01:06:10.945Z,94.57
2022-11-30T01:08:38.847Z,94.58
2022-11-30T01:11:27.550Z,95.20
2022-11-30T01:13:57.251Z,95.36
2022-11-30T01:16:29.201Z,95.25
2022-11-30T01:18:57.208Z,95.50
2022-11-30T01:21:28.670Z,95.31
2022-11-30T01:23:56.370Z,94.76
2022-11-30T01:26:24.366Z,94.59
2022-11-30T01:28:54.353Z,95.22
2022-11-30T01:31:24.813Z,95.21
2022-11-30T01:33:55.198Z,94.78
2022-11-30T01:36:26.490Z,94.29
2022-11-30T01:38:57.122Z,94.50
2022-11-30T01:41:31.924Z,94.37
2022-11-30T01:44:26.227Z,95.07
2022-11-30T01:47:01.231Z,94.91
2022-11-30T01:49:51.527Z,94.02
2022-11-30T01:52:23.341Z,94.24
2022-11-30T01:55:26.738Z,94.13
2022-11-30T01:58:05.395Z,94.12
2022-11-30T02:00:32.977Z,94.69
2022-11-30T02:03:25.072Z,94.44
2022-11-30T02:05:52.435Z,94.05
2022-11-30T02:08:20.466Z,94.26
2022-11-30T02:10:55.413Z,93.80
2022-11-30T02:14:08.416Z,93.54
2022-11-30T02:17:15.014Z,93.53
2022-11-30T02:20:19.691Z,93.62
2022-11-30T02:22:53.112Z,93.68
2022-11-30T02:25:52.557Z,93.17
2022-11-30T02:29:08.204Z,93.45
2022-11-30T02:31:54.455Z,93.42
2022-11-30T02:34:27.865Z,93.94
2022-11-30T02:36:58.393Z,93.77
2022-11-30T02:39:25.852Z,94.02
2022-11-30T02:41:53.513Z,93.73
2022-11-30T02:44:23.096Z,93.42
2022-11-30T02:47:10.899Z,93.52
2022-11-30T02:49:48.860Z,94.10
2022-11-30T02:52:19.874Z,94.02
2022-11-30T02:54:47.425Z,93.89
2022-11-30T02:57:15.218Z,93.28
2022-11-30T02:59:42.763Z,93.32
2022-11-30T03:02:10.188Z,93.26
2022-11-30T03:04:37.418Z,92.92
2022-11-30T03:07:05.011Z,93.09
2022-11-30T03:09:32.201Z,92.90
2022-11-30T03:11:59.662Z,93.15
2022-11-30T03:14:26.879Z,93.32
2022-11-30T03:16:54.346Z,93.10
2022-11-30T03:19:21.505Z,93.43
2022-11-30T03:21:49.137Z,93.30
2022-11-30T03:24:16.345Z,93.68
2022-11-30T03:26:44.157Z,93.37
2022-11-30T03:29:11.299Z,93.53
2022-11-30T03:31:38.744Z,93.37
2022-11-30T03:34:05.931Z,94.05
2022-11-30T03:36:33.524Z,93.63
2022-11-30T03:39:00.768Z,93.75
2022-11-30T03:41:28.229Z,93.70
2022-11-30T03:43:56.242Z,93.39
2022-11-30T03:46:23.828Z,92.79
2022-11-30T03:48:50.969Z,93.32
2022-11-30T03:51:18.700Z,93.44
2022-11-30T03:53:46.021Z,93.55
2022-11-30T03:56:14.516Z,93.21
2022-11-30T03:58:42.309Z,93.07
2022-11-30T04:01:17.053Z,92.98
2022-11-30T04:03:44.552Z,92.66
2022-11-30T04:06:13.308Z,92.29
2022-11-30T04:08:41.334Z,92.62
2022-11-30T04:11:09.838Z,92.74
2022-11-30T04:13:39.384Z,92.88
2022-11-30T04:16:07.865Z,93.22
2022-11-30T04:18:37.212Z,92.94
2022-11-30T04:21:06.735Z,92.77
2022-11-30T04:23:39.708Z,92.65
2022-11-30T04:26:12.298Z,92.99
2022-11-30T04:28:40.151Z,92.67
2022-11-30T04:31:07.769Z,92.27
2022-11-30T04:33:35.268Z,92.02
2022-11-30T04:36:07.391Z,91.54
2022-11-30T04:38:36.581Z,92.20
2022-11-30T04:41:09.013Z,92.11
2022-11-30T04:43:36.709Z,92.23
2022-11-30T04:46:06.098Z,92.03
2022-11-30T04:48:33.942Z,92.34
2022-11-30T04:51:07.901Z,92.19
2022-11-30T04:53:38.033Z,92.31
2022-11-30T04:56:11.139Z,92.38
2022-11-30T04:58:39.200Z,92.61
2022-11-30T05:01:07.810Z,92.60
2022-11-30T05:03:35.262Z,92.76
2022-11-30T05:06:03.878Z,93.00
2022-11-30T05:08:31.201Z,92.96
2022-11-30T05:10:58.988Z,92.53
2022-11-30T05:13:26.928Z,92.38
2022-11-30T05:15:54.915Z,92.00
2022-11-30T05:18:22.623Z,91.72
2022-11-30T05:20:52.943Z,91.73
2022-11-30T05:23:21.274Z,91.78
2022-11-30T05:25:49.298Z,91.80
2022-11-30T05:28:16.695Z,91.84
2022-11-30T05:30:44.508Z,91.68
2022-11-30T05:33:12.395Z,91.65
2022-11-30T05:35:39.900Z,92.06
2022-11-30T05:38:07.122Z,92.01
2022-11-30T05:40:35.035Z,92.01
2022-11-30T05:43:04.336Z,92.16
2022-11-30T05:45:32.089Z,91.55
2022-11-30T05:47:59.301Z,91.43
2022-11-30T05:50:26.771Z,91.05
2022-11-30T05:52:57.906Z,90.53
2022-11-30T05:55:25.609Z,90.11
2022-11-30T05:57:53.646Z,90.00
2022-11-30T06:00:22.130Z,90.21
2022-11-30T06:02:49.379Z,90.66
2022-11-30T06:05:17.004Z,91.39
2022-11-30T06:07:44.291Z,91.48
2022-11-30T06:10:12.468Z,91.41
2022-11-30T06:12:39.671Z,91.90
2022-11-30T06:15:08.719Z,91.67
2022-11-30T06:17:38.028Z,91.66
2022-11-30T06:20:07.919Z,92.58
2022-11-30T06:22:35.328Z,92.38
2022-11-30T06:25:02.897Z,92.35
2022-11-30T06:27:32.993Z,92.32
2022-11-30T06:30:00.520Z,92.63
2022-11-30T06:32:27.868Z,92.46
2022-11-30T06:34:55.402Z,92.09
2022-11-30T06:37:22.548Z,91.75
2022-11-30T06:40:05.900Z,91.39
2022-11-30T06:42:35.275Z,91.68
2022-11-30T06:45:04.106Z,91.75
2022-11-30T06:47:31.453Z,91.52
2022-11-30T06:49:58.934Z,91.73
2022-11-30T06:52:26.146Z,91.48
2022-11-30T06:54:53.596Z,91.68
2022-11-30T06:57:21.158Z,91.69
2022-11-30T06:59:48.572Z,91.28
2022-11-30T07:02:18.481Z,91.15
2022-11-30T07:04:47.366Z,92.07
2022-11-30T07:07:14.802Z,92.09
2022-11-30T07:09:42.414Z,92.02
2022-11-30T07:12:09.683Z,91.92
2022-11-30T07:14:37.264Z,91.34
2022-11-30T07:17:04.882Z,91.74
2022-11-30T07:19:35.901Z,92.03
2022-11-30T07:22:03.448Z,91.53
2022-11-30T07:24:49.534Z,91.60
2022-11-30T07:27:16.867Z,91.84
2022-11-30T07:29:44.522Z,92.09
2022-11-30T07:32:11.751Z,92.75
2022-11-30T07:34:39.298Z,92.85
2022-11-30T07:37:06.666Z,92.52
2022-11-30T07:39:34.157Z,92.50
2022-11-30T07:42:02.027Z,92.34
2022-11-30T07:44:29.482Z,92.33
2022-11-30T07:46:56.808Z,93.06
2022-11-30T07:49:24.261Z,93.33
2022-11-30T07:51:51.359Z,92.25
2022-11-30T07:54:19.116Z,91.13
2022-11-30T07:56:46.276Z,91.48
2022-11-30T07:59:13.771Z,91.12
2022-11-30T08:01:40.992Z,90.54
2022-11-30T08:04:08.630Z,90.88
2022-11-30T08:06:35.823Z,90.73
2022-11-30T08:09:04.544Z,89.79
2022-11-30T08:11:35.463Z,89.90
2022-11-30T08:14:04.582Z,89.81
2022-11-30T08:16:38.258Z,89.02
2022-11-30T08:19:06.123Z,89.33
2022-11-30T08:21:33.446Z,88.54
2022-11-30T08:24:01.228Z,88.74
2022-11-30T08:26:33.251Z,88.93
2022-11-30T08:29:02.171Z,88.68
2022-11-30T08:31:34.037Z,88.39
2022-11-30T08:34:09.779Z,87.63
2022-11-30T08:36:38.544Z,88.07
2022-11-30T08:39:09.398Z,88.10
2022-11-30T08:41:36.996Z,88.36
2022-11-30T08:44:05.036Z,87.30
2022-11-30T08:49:24.429Z,86.38
2022-11-30T08:54:46.093Z,86.45
2022-11-30T08:57:17.601Z,87.01
2022-11-30T08:59:46.068Z,88.13
2022-11-30T09:02:17.986Z,88.00
2022-11-30T09:04:49.474Z,88.25
2022-11-30T09:07:17.742Z,87.89
2022-11-30T09:09:45.464Z,87.44
2022-11-30T09:12:12.714Z,87.59
2022-11-30T09:14:40.233Z,87.97
2022-11-30T09:17:07.403Z,87.36
2022-11-30T09:19:34.824Z,87.35
2022-11-30T09:22:02.058Z,86.47
2022-11-30T09:24:29.658Z,86.29
2022-11-30T09:26:57.561Z,86.87
2022-11-30T09:29:25.118Z,86.55
2022-11-30T09:31:52.331Z,86.59
2022-11-30T09:34:20.020Z,86.23
2022-11-30T09:36:47.211Z,86.00
2022-11-30T09:39:14.686Z,85.16
2022-11-30T09:42:21.118Z,85.16
2022-11-30T09:45:03.128Z,84.55
2022-11-30T09:47:53.225Z,84.24
2022-11-30T09:50:29.415Z,83.66
2022-11-30T09:53:07.122Z,83.15
2022-11-30T09:55:42.107Z,83.12
2022-11-30T09:58:46.907Z,82.97
2022-11-30T10:01:20.259Z,82.62
2022-11-30T10:03:48.291Z,81.73
2022-11-30T10:06:34.714Z,81.16
2022-11-30T10:10:15.953Z,81.10
2022-11-30T10:12:50.897Z,81.04
2022-11-30T10:15:33.586Z,80.35
2022-11-30T10:18:31.058Z,80.38
2022-11-30T10:21:25.719Z,80.26
2022-11-30T10:24:19.293Z,81.08
2022-11-30T10:26:55.495Z,81.02
2022-11-30T10:29:26.325Z,80.73
2022-11-30T10:31:59.288Z,81.08
2022-11-30T10:34:35.969Z,81.03
2022-11-30T10:37:37.531Z,80.79
2022-11-30T10:40:25.377Z,79.69
2022-11-30T10:43:12.336Z,79.52
2022-11-30T10:45:48.832Z,79.58
2022-11-30T10:48:46.994Z,80.01
2022-11-30T10:51:15.094Z,80.61
2022-11-30T10:53:42.254Z,81.11
2022-11-30T10:56:12.543Z,81.32
2022-11-30T10:59:00.009Z,80.90
2022-11-30T11:01:38.231Z,80.72
2022-11-30T11:04:17.034Z,80.73
2022-11-30T11:07:11.301Z,80.11
2022-11-30T11:09:50.431Z,80.08
2022-11-30T11:12:31.046Z,80.49
2022-11-30T11:15:26.672Z,80.44
2022-11-30T11:18:21.578Z,80.54
2022-11-30T11:21:04.132Z,80.01
2022-11-30T11:23:39.499Z,79.35
2022-11-30T11:26:20.021Z,79.41
2022-11-30T11:28:51.381Z,79.45
2022-11-30T11:31:44.458Z,79.93
2022-11-30T11:34:34.945Z,79.43
2022-11-30T11:37:17.223Z,80.53
2022-11-30T11:40:02.554Z,80.76
2022-11-30T11:42:37.145Z,80.99
2022-11-30T11:45:06.544Z,81.18
2022-11-30T11:47:45.102Z,80.99
2022-11-30T11:50:12.547Z,80.87
2022-11-30T11:52:40.008Z,80.58
2022-11-30T11:55:17.983Z,80.38
2022-11-30T11:58:02.822Z,80.98
2022-11-30T12:00:31.516Z,81.39
2022-11-30T12:03:29.930Z,81.39
2022-11-30T12:06:05.577Z,81.10
2022-11-30T12:08:49.207Z,80.59
2022-11-30T12:11:27.725Z,80.66
2022-11-30T12:13:55.023Z,80.32
2022-11-30T12:17:20.067Z,80.39
2022-11-30T12:20:05.016Z,80.43
2022-11-30T12:23:21.919Z,80.25
2022-11-30T12:26:26.949Z,80.27
2022-11-30T12:29:23.347Z,80.22
2022-11-30T12:32:13.627Z,80.12
2022-11-30T12:34:56.129Z,79.47
2022-11-30T12:37:35.624Z,80.22
2022-11-30T12:40:51.746Z,80.95
2022-11-30T12:43:39.904Z,80.93
2022-11-30T12:46:56.387Z,79.71
2022-11-30T12:49:59.100Z,80.14
2022-11-30T12:52:54.221Z,80.85
2022-11-30T12:55:40.260Z,81.98
2022-11-30T12:58:58.878Z,81.48
2022-11-30T13:01:34.444Z,81.53
2022-11-30T13:04:19.484Z,81.68
2022-11-30T13:07:08.803Z,81.50
2022-11-30T13:09:56.504Z,81.50
2022-11-30T13:12:37.139Z,81.33
2022-11-30T13:15:22.871Z,82.90
2022-11-30T13:17:52.231Z,82.58
2022-11-30T13:20:45.333Z,83.61
2022-11-30T13:23:55.634Z,83.89
2022-11-30T13:26:37.599Z,83.36
2022-11-30T13:29:39.283Z,84.08
2022-11-30T13:32:48.653Z,84.33
2022-11-30T13:35:29.093Z,84.32
2022-11-30T13:38:36.282Z,83.91
2022-11-30T13:41:08.483Z,83.30
2022-11-30T13:43:45.651Z,83.54
2022-11-30T13:46:24.120Z,83.33
2022-11-30T13:49:18.422Z,83.58
2022-11-30T13:51:45.791Z,83.72
2022-11-30T13:54:54.544Z,82.94
2022-11-30T13:57:24.856Z,82.54
2022-11-30T13:59:54.012Z,83.64
2022-11-30T14:02:33.775Z,83.73
2022-11-30T14:05:16.792Z,85.19
2022-11-30T14:07:52.999Z,85.91
2022-11-30T14:10:33.805Z,85.63
2022-11-30T14:13:07.391Z,85.79
2022-11-30T14:15:41.867Z,84.99
2022-11-30T14:18:09.084Z,84.59
2022-11-30T14:20:53.705Z,84.18
2022-11-30T14:24:00.671Z,83.48
2022-11-30T14:26:41.963Z,84.55
2022-11-30T14:29:09.029Z,84.07
2022-11-30T14:31:48.575Z,83.96
2022-11-30T14:34:36.359Z,85.29
2022-11-30T14:37:16.203Z,85.83
2022-11-30T14:39:46.904Z,85.66
2022-11-30T14:42:27.779Z,84.85
2022-11-30T14:44:56.501Z,84.96
2022-11-30T14:47:30.038Z,84.92
2022-11-30T14:50:02.335Z,85.25
2022-11-30T14:52:44.123Z,84.92
2022-11-30T14:55:18.952Z,85.71
2022-11-30T14:58:32.638Z,85.15
2022-11-30T15:01:03.808Z,85.85
2022-11-30T15:03:40.436Z,85.78
2022-11-30T15:06:08.603Z,85.67
2022-11-30T15:08:44.328Z,86.15
2022-11-30T15:11:15.164Z,85.74
2022-11-30T15:13:49.126Z,85.62
2022-11-30T15:16:25.383Z,85.63
2022-11-30T15:18:56.312Z,85.24
2022-11-30T15:21:26.556Z,85.93
2022-11-30T15:24:00.753Z,85.49
2022-11-30T15:26:49.786Z,86.17
2022-11-30T15:29:40.717Z,86.79
2022-11-30T15:32:17.614Z,86.57
2022-11-30T15:34:54.871Z,86.06
2022-11-30T15:37:43.615Z,86.08
2022-11-30T15:40:26.815Z,86.28
2022-11-30T15:42:54.121Z,86.28
2022-11-30T15:45:36.253Z,86.07
2022-11-30T15:48:35.826Z,86.21
2022-11-30T15:51:03.782Z,86.33
2022-11-30T15:53:35.556Z,86.30
2022-11-30T15:56:09.097Z,86.41
2022-11-30T15:58:47.658Z,85.91
2022-11-30T16:01:24.807Z,86.21
2022-11-30T16:04:05.873Z,86.42
2022-11-30T16:06:51.552Z,86.33
2022-11-30T16:09:32.277Z,86.63
2022-11-30T16:12:02.535Z,86.41
2022-11-30T16:14:29.810Z,86.71
2022-11-30T16:16:57.780Z,86.84
2022-11-30T16:19:25.133Z,87.13
2022-11-30T16:21:52.759Z,87.07
2022-11-30T16:24:20.431Z,86.49
2022-11-30T16:26:51.880Z,85.45
2022-11-30T16:29:20.305Z,86.06
2022-11-30T16:31:47.935Z,86.03
2022-11-30T16:34:15.092Z,86.23
2022-11-30T16:36:42.542Z,85.65
2022-11-30T16:39:12.824Z,85.53
2022-11-30T16:41:40.439Z,85.85
2022-11-30T16:44:14.304Z,85.07
2022-11-30T16:46:42.126Z,85.26
2022-11-30T16:49:09.395Z,85.68
2022-11-30T16:51:37.475Z,86.40
2022-11-30T16:54:05.139Z,86.41
2022-11-30T16:56:33.335Z,86.68
2022-11-30T16:59:00.609Z,86.57
2022-11-30T17:01:43.847Z,87.09
2022-11-30T17:04:22.965Z,86.73
2022-11-30T17:06:57.220Z,86.61
2022-11-30T17:09:29.954Z,86.79
2022-11-30T17:11:57.538Z,86.81
2022-11-30T17:14:24.710Z,86.83
2022-11-30T17:16:52.305Z,86.85
2022-11-30T17:19:19.808Z,86.90
2022-11-30T17:21:48.435Z,87.09
2022-11-30T17:24:15.983Z,86.69
2022-11-30T17:26:43.772Z,86.88
2022-11-30T17:29:10.949Z,86.43
2022-11-30T17:31:38.454Z,86.57
2022-11-30T17:34:08.705Z,86.25
2022-11-30T17:36:36.285Z,85.80
2022-11-30T17:39:08.847Z,86.25
2022-11-30T17:41:36.362Z,86.19
2022-11-30T17:44:03.754Z,86.31
2022-11-30T17:46:31.366Z,86.40
2022-11-30T17:48:58.709Z,86.25
2022-11-30T17:51:26.332Z,86.42
2022-11-30T17:53:53.565Z,86.73
2022-11-30T17:56:21.076Z,86.86
2022-11-30T17:58:49.381Z,85.82
2022-11-30T18:01:20.632Z,86.11
2022-11-30T18:03:48.398Z,86.60
2022-11-30T18:06:16.907Z,86.30
2022-11-30T18:08:44.529Z,86.07
2022-11-30T18:11:17.346Z,86.29
2022-11-30T18:13:44.841Z,87.07
2022-11-30T18:16:19.259Z,87.29
2022-11-30T18:18:48.470Z,87.02
2022-11-30T18:21:20.589Z,87.25
2022-11-30T18:23:49.148Z,87.22
2022-11-30T18:26:23.010Z,87.26
2022-11-30T18:28:58.063Z,87.59
2022-11-30T18:31:27.941Z,86.91
2022-11-30T18:33:58.563Z,86.36
2022-11-30T18:36:26.711Z,86.69
2022-11-30T18:38:54.320Z,86.64
2022-11-30T18:41:22.320Z,86.94
2022-11-30T18:43:49.601Z,87.71
2022-11-30T18:46:17.137Z,87.59
2022-11-30T18:48:47.933Z,87.45
2022-11-30T18:51:34.378Z,87.16
2022-11-30T18:54:07.701Z,87.15
2022-11-30T18:56:38.261Z,86.96
2022-11-30T18:59:14.800Z,86.14
2022-11-30T19:01:42.710Z,86.39
2022-11-30T19:04:11.861Z,86.79
2022-11-30T19:06:42.143Z,86.95
2022-11-30T19:09:13.836Z,87.67
2022-11-30T19:11:42.834Z,87.55
2022-11-30T19:14:14.583Z,87.34
2022-11-30T19:16:43.014Z,87.31
2022-11-30T19:19:14.548Z,87.27
2022-11-30T19:21:48.028Z,86.67
2022-11-30T19:24:16.737Z,86.83
2022-11-30T19:26:44.240Z,86.72
2022-11-30T19:29:12.409Z,87.47
2022-11-30T19:31:40.284Z,87.23
2022-11-30T19:34:12.619Z,86.89
2022-11-30T19:36:41.881Z,86.11
2022-11-30T19:39:10.955Z,86.76
2022-11-30T19:41:39.313Z,86.27
2022-11-30T19:44:06.580Z,86.40
2022-11-30T19:46:34.922Z,86.53
2022-11-30T19:49:02.694Z,86.63
2022-11-30T19:51:31.950Z,86.65
2022-11-30T19:53:59.887Z,86.40
2022-11-30T19:56:32.313Z,86.59
2022-11-30T19:59:04.679Z,86.62
2022-11-30T20:01:34.161Z,86.47
2022-11-30T20:04:01.480Z,86.47
2022-11-30T20:06:36.095Z,86.28
2022-11-30T20:09:07.202Z,86.91
2022-11-30T20:11:35.376Z,87.04
2022-11-30T20:14:03.897Z,86.99
2022-11-30T20:16:31.629Z,86.55
2022-11-30T20:19:01.744Z,86.70
2022-11-30T20:21:36.192Z,86.85
2022-11-30T20:24:07.797Z,86.95
2022-11-30T20:26:42.987Z,87.09
2022-11-30T20:29:16.597Z,87.29
2022-11-30T20:31:47.587Z,86.67
2022-11-30T20:34:15.865Z,86.82
2022-11-30T20:36:43.769Z,86.90
2022-11-30T20:39:12.069Z,86.49
2022-11-30T20:41:39.824Z,86.66
2022-11-30T20:44:07.270Z,86.65
2022-11-30T20:46:36.158Z,86.18
2022-11-30T20:49:13.501Z,86.44
2022-11-30T20:51:41.237Z,86.44
2022-11-30T20:54:08.590Z,85.93
2022-11-30T20:56:38.184Z,86.04
2022-11-30T20:59:19.620Z,86.55
2022-11-30T21:01:47.427Z,86.21
2022-11-30T21:04:14.663Z,86.20
2022-11-30T21:06:45.574Z,86.07
2022-11-30T21:09:15.120Z,85.80
2022-11-30T21:11:43.714Z,85.62
2022-11-30T21:14:11.271Z,85.77
2022-11-30T21:16:39.805Z,85.63
2022-11-30T21:19:07.264Z,85.76
2022-11-30T21:21:35.829Z,85.83
2022-11-30T21:24:07.741Z,86.07
2022-11-30T21:26:42.497Z,86.15
2022-11-30T21:29:18.248Z,85.83
2022-11-30T21:31:46.285Z,85.93
2022-11-30T21:34:14.103Z,85.88
2022-11-30T21:36:42.643Z,86.03
2022-11-30T21:39:14.219Z,86.02
2022-11-30T21:41:42.258Z,85.76
2022-11-30T21:44:16.101Z,85.44
2022-11-30T21:46:46.543Z,86.37
2022-11-30T21:49:15.916Z,86.27
2022-11-30T21:51:44.108Z,86.74
2022-11-30T21:54:13.352Z,86.73
2022-11-30T21:56:43.777Z,86.98
2022-11-30T21:59:14.464Z,87.07
2022-11-30T22:01:43.998Z,86.35
2022-11-30T22:04:14.149Z,86.95
2022-11-30T22:06:43.378Z,86.48
2022-11-30T22:09:17.537Z,86.45
2022-11-30T22:11:45.748Z,86.49
2022-11-30T22:14:16.867Z,86.67
2022-11-30T22:16:45.332Z,86.83
2022-11-30T22:19:15.796Z,87.34
2022-11-30T22:21:49.405Z,87.77
2022-11-30T22:24:17.577Z,87.14
2022-11-30T22:26:46.737Z,86.76
2022-11-30T22:29:21.263Z,87.27
2022-11-30T22:31:53.414Z,87.34
2022-11-30T22:34:21.449Z,87.12
2022-11-30T22:36:48.998Z,86.64
2022-11-30T22:39:21.816Z,86.68
2022-11-30T22:41:55.150Z,87.14
2022-11-30T22:44:25.747Z,87.22
2022-11-30T22:46:59.846Z,87.12
2022-11-30T22:49:27.155Z,87.04
2022-11-30T22:51:54.600Z,86.76
2022-11-30T22:54:21.909Z,87.01
2022-11-30T22:56:49.423Z,87.54
2022-11-30T22:59:16.792Z,87.08
2022-11-30T23:01:49.788Z,87.66
2022-11-30T23:04:20.191Z,88.09
2022-11-30T23:06:49.980Z,88.02
2022-11-30T23:09:22.939Z,88.23
2022-11-30T23:11:52.112Z,87.73
2022-11-30T23:14:19.937Z,87.67
2022-11-30T23:16:48.064Z,87.73
2022-11-30T23:19:16.103Z,87.39
2022-11-30T23:21:45.448Z,87.53
2022-11-30T23:24:18.034Z,87.15
2022-11-30T23:26:46.107Z,86.90
2022-11-30T23:29:16.095Z,86.26
2022-11-30T23:31:45.527Z,86.28
2022-11-30T23:34:20.027Z,86.11
2022-11-30T23:36:49.216Z,86.11
2022-11-30T23:39:19.722Z,86.10
2022-11-30T23:41:47.687Z,86.04
2022-11-30T23:44:15.240Z,85.90
2022-11-30T23:46:42.827Z,85.73
2022-11-30T23:49:13.536Z,85.60
2022-11-30T23:51:42.247Z,85.66
2022-11-30T23:54:09.504Z,85.36
2022-11-30T23:56:37.037Z,85.46
2022-11-30T23:59:04.206Z,85.47
